createdAt,value
2023-03-13T00:01:44.721Z,12.08
2023-03-13T00:04:12.768Z,11.85
2023-03-13T00:06:41.386Z,12.08
2023-03-13T00:09:10.397Z,12.01
2023-03-13T00:11:37.521Z,12.02
2023-03-13T00:14:05.149Z,11.87
2023-03-13T00:16:31.901Z,12.14
2023-03-13T00:18:59.069Z,11.81
2023-03-13T00:21:27.754Z,12.45
2023-03-13T00:23:54.880Z,11.93
2023-03-13T00:26:23.758Z,12.28
2023-03-13T00:28:51.451Z,12.15
2023-03-13T00:31:19.608Z,12.00
2023-03-13T00:33:48.765Z,12.40
2023-03-13T00:36:18.209Z,12.04
2023-03-13T00:38:45.274Z,12.19
2023-03-13T00:41:17.760Z,12.20
2023-03-13T00:43:44.813Z,12.42
2023-03-13T00:46:12.669Z,12.33
2023-03-13T00:48:39.183Z,12.39
2023-03-13T00:51:06.947Z,12.28
2023-03-13T00:53:33.929Z,11.80
2023-03-13T00:56:03.224Z,12.27
2023-03-13T00:58:31.271Z,11.86
2023-03-13T01:00:57.886Z,12.02
2023-03-13T01:03:25.771Z,12.09
2023-03-13T01:06:00.151Z,12.13
2023-03-13T01:08:27.815Z,11.03
2023-03-13T01:10:59.233Z,11.46
2023-03-13T01:13:26.050Z,11.20
2023-03-13T01:15:52.752Z,11.21
2023-03-13T01:18:19.451Z,11.30
2023-03-13T01:20:46.297Z,11.25
2023-03-13T01:23:13.079Z,11.41
2023-03-13T01:25:40.623Z,11.28
2023-03-13T01:28:07.127Z,11.06
2023-03-13T01:30:34.070Z,11.42
2023-03-13T01:33:02.142Z,11.27
2023-03-13T01:35:29.018Z,11.27
2023-03-13T01:37:55.620Z,11.61
2023-03-13T01:40:22.204Z,11.07
2023-03-13T01:42:53.688Z,11.36
2023-03-13T01:45:51.422Z,11.27
2023-03-13T01:48:18.102Z,11.22
2023-03-13T01:50:44.661Z,10.82
2023-03-13T01:53:11.673Z,11.09
2023-03-13T01:55:38.538Z,10.92
2023-03-13T01:58:05.335Z,11.16
2023-03-13T02:00:34.158Z,11.57
2023-03-13T02:03:06.976Z,11.35
2023-03-13T02:05:33.793Z,11.17
2023-03-13T02:08:24.293Z,11.24
2023-03-13T02:10:54.511Z,11.70
2023-03-13T02:13:21.072Z,11.27
2023-03-13T02:15:48.108Z,11.15
2023-03-13T02:18:16.624Z,11.45
2023-03-13T02:20:43.662Z,11.15
2023-03-13T02:23:25.632Z,11.40
2023-03-13T02:25:53.878Z,11.04
2023-03-13T02:28:25.938Z,11.20
2023-03-13T02:30:55.812Z,11.03
2023-03-13T02:33:23.072Z,11.13
2023-03-13T02:35:49.902Z,11.09
2023-03-13T02:38:20.565Z,11.29
2023-03-13T02:40:48.372Z,11.23
2023-03-13T02:43:22.685Z,10.98
2023-03-13T02:46:08.071Z,11.30
2023-03-13T02:48:44.100Z,11.07
2023-03-13T02:51:25.775Z,10.88
2023-03-13T02:53:54.267Z,10.90
2023-03-13T02:56:23.254Z,10.97
2023-03-13T02:58:50.722Z,10.92
2023-03-13T03:01:17.495Z,10.92
2023-03-13T03:03:44.093Z,11.00
2023-03-13T03:06:10.684Z,10.73
2023-03-13T03:08:41.299Z,11.24
2023-03-13T03:11:08.115Z,10.88
2023-03-13T03:13:34.638Z,11.02
2023-03-13T03:16:06.786Z,10.81
2023-03-13T03:18:34.681Z,10.98
2023-03-13T03:21:01.477Z,11.20
2023-03-13T03:23:28.375Z,10.79
2023-03-13T03:25:54.935Z,11.05
2023-03-13T03:28:21.417Z,11.10
2023-03-13T03:30:47.985Z,10.33
2023-03-13T03:33:14.589Z,10.96
2023-03-13T03:35:41.155Z,10.93
2023-03-13T03:38:07.659Z,10.88
2023-03-13T03:40:34.248Z,11.07
2023-03-13T03:43:00.819Z,11.19
2023-03-13T03:45:27.587Z,11.10
2023-03-13T03:47:54.113Z,11.45
2023-03-13T03:50:20.692Z,11.20
2023-03-13T03:52:47.212Z,10.49
2023-03-13T03:55:13.792Z,10.91
2023-03-13T03:57:40.324Z,11.12
2023-03-13T04:00:08.024Z,11.17
2023-03-13T04:02:34.970Z,11.27
2023-03-13T04:05:01.597Z,11.27
2023-03-13T04:07:28.403Z,11.12
2023-03-13T04:09:55.151Z,11.13
2023-03-13T04:12:21.728Z,11.41
2023-03-13T04:14:48.224Z,11.49
2023-03-13T04:17:15.289Z,11.16
2023-03-13T04:19:41.865Z,11.31
2023-03-13T04:22:08.550Z,11.08
2023-03-13T04:24:35.145Z,11.68
2023-03-13T04:27:03.638Z,11.53
2023-03-13T04:29:30.189Z,11.55
2023-03-13T04:31:56.751Z,11.60
2023-03-13T04:34:23.406Z,11.82
2023-03-13T04:36:49.939Z,11.84
2023-03-13T04:39:16.471Z,11.98
2023-03-13T04:41:43.035Z,11.83
2023-03-13T04:44:09.946Z,12.10
2023-03-13T04:46:36.807Z,11.83
2023-03-13T04:49:03.435Z,11.98
2023-03-13T04:51:30.247Z,11.92
2023-03-13T04:53:56.766Z,11.68
2023-03-13T04:56:41.676Z,11.84
2023-03-13T04:59:10.906Z,12.08
2023-03-13T05:01:37.461Z,11.86
2023-03-13T05:04:04.595Z,11.89
2023-03-13T05:06:31.103Z,12.05
2023-03-13T05:08:57.893Z,12.08
2023-03-13T05:11:24.784Z,12.19
2023-03-13T05:13:51.341Z,11.81
2023-03-13T05:16:17.856Z,11.99
2023-03-13T05:18:44.464Z,11.83
2023-03-13T05:21:11.131Z,11.96
2023-03-13T05:23:37.792Z,12.07
2023-03-13T05:26:04.818Z,12.02
2023-03-13T05:28:31.448Z,11.87
2023-03-13T05:30:58.158Z,11.89
2023-03-13T05:33:24.765Z,12.22
2023-03-13T05:35:51.369Z,11.79
2023-03-13T05:38:18.306Z,12.17
2023-03-13T05:40:44.845Z,12.18
2023-03-13T05:43:11.372Z,12.18
2023-03-13T05:45:37.891Z,11.81
2023-03-13T05:48:04.626Z,12.13
2023-03-13T05:50:31.188Z,12.24
2023-03-13T05:52:57.775Z,11.47
2023-03-13T05:55:24.308Z,12.29
2023-03-13T05:57:50.851Z,12.23
2023-03-13T06:00:18.037Z,12.69
2023-03-13T06:02:44.890Z,12.41
2023-03-13T06:05:11.597Z,12.51
2023-03-13T06:07:38.263Z,12.46
2023-03-13T06:10:05.539Z,12.50
2023-03-13T06:12:32.087Z,12.15
2023-03-13T06:14:58.657Z,12.31
2023-03-13T06:17:25.603Z,12.73
2023-03-13T06:19:52.338Z,12.52
2023-03-13T06:22:19.044Z,12.75
2023-03-13T06:24:46.880Z,12.52
2023-03-13T06:27:13.567Z,12.43
2023-03-13T06:29:40.223Z,12.54
2023-03-13T06:32:07.230Z,12.71
2023-03-13T06:34:34.174Z,12.84
2023-03-13T06:37:00.915Z,12.71
2023-03-13T06:39:27.527Z,13.02
2023-03-13T06:41:54.468Z,12.93
2023-03-13T06:44:21.340Z,12.74
2023-03-13T06:46:47.978Z,12.86
2023-03-13T06:49:14.575Z,12.86
2023-03-13T06:51:41.123Z,13.06
2023-03-13T06:54:07.691Z,12.93
2023-03-13T06:56:34.271Z,12.75
2023-03-13T06:59:00.838Z,12.86
2023-03-13T07:01:27.459Z,13.10
2023-03-13T07:03:54.066Z,13.27
2023-03-13T07:06:20.650Z,13.31
2023-03-13T07:08:47.335Z,13.85
2023-03-13T07:11:16.149Z,13.49
2023-03-13T07:13:42.673Z,13.74
2023-03-13T07:16:11.824Z,13.63
2023-03-13T07:18:39.386Z,13.44
2023-03-13T07:21:06.137Z,14.13
2023-03-13T07:23:34.537Z,13.96
2023-03-13T07:26:06.388Z,13.92
2023-03-13T07:28:34.440Z,13.64
2023-03-13T07:31:18.503Z,14.16
2023-03-13T07:33:45.411Z,14.02
2023-03-13T07:36:13.998Z,13.95
2023-03-13T07:38:40.589Z,14.18
2023-03-13T07:41:07.197Z,14.09
2023-03-13T07:43:33.856Z,14.06
2023-03-13T07:46:02.550Z,14.89
2023-03-13T07:48:31.479Z,14.44
2023-03-13T07:50:58.861Z,14.81
2023-03-13T07:53:25.606Z,15.06
2023-03-13T07:55:56.916Z,14.71
2023-03-13T07:58:24.718Z,14.93
2023-03-13T08:00:52.096Z,15.02
2023-03-13T08:03:19.347Z,14.74
2023-03-13T08:05:46.086Z,14.64
2023-03-13T08:08:12.660Z,14.69
2023-03-13T08:10:39.237Z,14.54
2023-03-13T08:13:06.006Z,14.93
2023-03-13T08:15:32.585Z,14.81
2023-03-13T08:17:59.162Z,14.90
2023-03-13T08:20:26.003Z,15.15
2023-03-13T08:22:52.651Z,15.02
2023-03-13T08:25:19.238Z,14.83
2023-03-13T08:27:45.732Z,15.33
2023-03-13T08:30:12.887Z,14.82
2023-03-13T08:32:39.547Z,14.65
2023-03-13T08:35:06.608Z,14.95
2023-03-13T08:37:34.274Z,15.23
2023-03-13T08:40:01.329Z,15.38
2023-03-13T08:42:27.926Z,15.15
2023-03-13T08:44:54.575Z,15.02
2023-03-13T08:47:21.089Z,14.73
2023-03-13T08:49:47.561Z,15.19
2023-03-13T08:52:14.203Z,15.01
2023-03-13T08:54:40.848Z,15.26
2023-03-13T08:57:07.394Z,15.30
2023-03-13T08:59:34.134Z,15.32
2023-03-13T09:02:00.906Z,15.61
2023-03-13T09:04:27.420Z,15.13
2023-03-13T09:06:53.936Z,15.21
2023-03-13T09:09:20.619Z,15.32
2023-03-13T09:11:47.129Z,15.10
2023-03-13T09:14:13.772Z,15.25
2023-03-13T09:16:40.344Z,15.29
2023-03-13T09:19:06.982Z,15.10
2023-03-13T09:21:35.003Z,15.28
2023-03-13T09:24:01.998Z,14.96
2023-03-13T09:26:28.620Z,14.96
2023-03-13T09:28:55.607Z,15.34
2023-03-13T09:31:24.585Z,15.48
2023-03-13T09:33:51.484Z,15.08
2023-03-13T09:36:21.527Z,15.62
2023-03-13T09:38:52.735Z,15.72
2023-03-13T09:41:24.277Z,16.41
2023-03-13T09:44:09.703Z,17.91
2023-03-13T09:46:50.913Z,17.35
2023-03-13T09:49:31.488Z,18.29
2023-03-13T09:52:18.069Z,17.90
2023-03-13T09:55:02.465Z,17.88
2023-03-13T09:57:35.522Z,17.32
2023-03-13T10:00:35.711Z,17.65
2023-03-13T10:03:11.418Z,17.46
2023-03-13T10:05:40.014Z,17.11
2023-03-13T10:08:15.921Z,16.49
2023-03-13T10:11:12.420Z,16.13
2023-03-13T10:13:51.597Z,16.62
2023-03-13T10:16:22.948Z,16.63
2023-03-13T10:18:54.611Z,16.45
2023-03-13T10:21:23.600Z,18.21
2023-03-13T10:24:03.112Z,17.92
2023-03-13T10:26:33.023Z,17.29
2023-03-13T10:29:11.661Z,17.15
2023-03-13T10:31:39.551Z,16.83
2023-03-13T10:34:10.913Z,16.86
2023-03-13T10:36:48.772Z,17.65
2023-03-13T10:39:21.296Z,18.32
2023-03-13T10:41:52.011Z,20.41
2023-03-13T10:44:21.451Z,19.89
2023-03-13T10:46:50.619Z,19.35
2023-03-13T10:49:19.932Z,22.02
2023-03-13T10:51:48.974Z,21.58
2023-03-13T10:54:22.021Z,22.12
2023-03-13T10:56:49.852Z,19.98
2023-03-13T10:59:25.107Z,19.11
2023-03-13T11:01:53.060Z,18.35
2023-03-13T11:04:37.656Z,19.29
2023-03-13T11:07:09.898Z,18.80
2023-03-13T11:09:36.409Z,18.48
2023-03-13T11:12:12.162Z,18.22
2023-03-13T11:14:38.835Z,17.99
2023-03-13T11:17:23.800Z,19.13
2023-03-13T11:20:06.255Z,21.53
2023-03-13T11:22:41.023Z,20.11
2023-03-13T11:25:28.982Z,20.41
2023-03-13T11:27:58.666Z,20.83
2023-03-13T11:30:28.435Z,20.85
2023-03-13T11:32:56.685Z,21.69
2023-03-13T11:35:42.197Z,21.49
2023-03-13T11:38:20.085Z,22.15
2023-03-13T11:40:54.698Z,20.65
2023-03-13T11:43:26.077Z,20.22
2023-03-13T11:46:04.120Z,19.81
2023-03-13T11:48:40.549Z,20.81
2023-03-13T11:51:20.934Z,21.22
2023-03-13T11:53:59.443Z,20.63
2023-03-13T11:56:41.516Z,20.06
2023-03-13T11:59:28.432Z,22.04
2023-03-13T12:01:59.682Z,21.13
2023-03-13T12:04:37.459Z,22.79
2023-03-13T12:07:28.500Z,22.78
2023-03-13T12:10:05.168Z,20.54
2023-03-13T12:12:40.578Z,19.80
2023-03-13T12:15:28.551Z,20.72
2023-03-13T12:18:00.264Z,21.66
2023-03-13T12:20:47.391Z,23.02
2023-03-13T12:23:29.103Z,24.47
2023-03-13T12:26:00.488Z,25.65
2023-03-13T12:28:36.431Z,23.23
2023-03-13T12:31:12.777Z,22.01
2023-03-13T12:34:04.557Z,21.06
2023-03-13T12:36:40.699Z,20.12
2023-03-13T12:39:35.874Z,19.60
2023-03-13T12:42:08.487Z,19.54
2023-03-13T12:44:35.678Z,19.31
2023-03-13T12:47:25.385Z,19.47
2023-03-13T12:49:55.883Z,20.05
2023-03-13T12:52:50.964Z,20.43
2023-03-13T12:55:34.919Z,19.30
2023-03-13T12:58:01.489Z,19.11
2023-03-13T13:00:30.436Z,19.44
2023-03-13T13:03:36.159Z,19.19
2023-03-13T13:06:07.060Z,19.45
2023-03-13T13:08:47.483Z,19.18
2023-03-13T13:11:39.212Z,19.44
2023-03-13T13:14:11.622Z,19.44
2023-03-13T13:16:43.051Z,19.53
2023-03-13T13:19:24.853Z,19.94
2023-03-13T13:22:29.173Z,19.76
2023-03-13T13:24:58.209Z,19.82
2023-03-13T13:27:37.107Z,20.43
2023-03-13T13:30:18.997Z,20.02
2023-03-13T13:32:56.082Z,19.50
2023-03-13T13:35:30.094Z,19.56
2023-03-13T13:38:18.672Z,20.01
2023-03-13T13:41:05.330Z,19.91
2023-03-13T13:43:45.781Z,19.03
2023-03-13T13:46:31.417Z,19.54
2023-03-13T13:49:07.626Z,20.08
2023-03-13T13:51:38.266Z,19.30
2023-03-13T13:54:33.310Z,19.57
2023-03-13T13:57:09.385Z,19.50
2023-03-13T13:59:41.077Z,20.19
2023-03-13T14:02:09.904Z,20.18
2023-03-13T14:04:43.700Z,19.51
2023-03-13T14:07:16.436Z,19.12
2023-03-13T14:09:42.923Z,19.48
2023-03-13T14:12:25.519Z,19.43
2023-03-13T14:15:19.179Z,19.04
2023-03-13T14:17:52.012Z,19.06
2023-03-13T14:20:27.298Z,19.65
2023-03-13T14:22:55.301Z,18.96
2023-03-13T14:25:24.032Z,19.21
2023-03-13T14:27:51.748Z,19.56
2023-03-13T14:30:20.110Z,19.21
2023-03-13T14:32:47.112Z,19.54
2023-03-13T14:35:17.083Z,18.83
2023-03-13T14:37:46.137Z,19.08
2023-03-13T14:40:20.002Z,18.97
2023-03-13T14:42:49.433Z,18.77
2023-03-13T14:45:21.501Z,18.81
2023-03-13T14:47:50.756Z,18.98
2023-03-13T14:50:18.329Z,18.58
2023-03-13T14:52:50.155Z,18.19
2023-03-13T14:55:23.005Z,17.82
2023-03-13T14:58:21.271Z,18.77
2023-03-13T15:00:48.761Z,19.50
2023-03-13T15:03:20.029Z,19.19
2023-03-13T15:05:50.043Z,18.84
2023-03-13T15:08:19.258Z,18.20
2023-03-13T15:10:46.319Z,18.48
2023-03-13T15:13:35.886Z,18.66
2023-03-13T15:16:11.033Z,18.59
2023-03-13T15:18:37.550Z,18.38
2023-03-13T15:21:10.280Z,18.50
2023-03-13T15:23:36.827Z,18.11
2023-03-13T15:26:03.712Z,18.26
2023-03-13T15:28:30.821Z,17.98
2023-03-13T15:30:57.798Z,18.45
2023-03-13T15:33:27.635Z,17.75
2023-03-13T15:35:54.831Z,17.26
2023-03-13T15:38:24.202Z,17.65
2023-03-13T15:40:51.012Z,18.00
2023-03-13T15:43:18.253Z,18.10
2023-03-13T15:45:47.823Z,17.94
2023-03-13T15:48:20.366Z,17.71
2023-03-13T15:50:50.900Z,17.80
2023-03-13T15:53:24.094Z,17.97
2023-03-13T15:55:52.716Z,17.57
2023-03-13T15:58:19.656Z,17.40
2023-03-13T16:00:46.363Z,17.70
2023-03-13T16:03:17.030Z,17.43
2023-03-13T16:05:44.070Z,17.45
2023-03-13T16:08:37.344Z,17.79
2023-03-13T16:11:04.478Z,18.17
2023-03-13T16:13:31.493Z,17.99
2023-03-13T16:15:58.585Z,18.02
2023-03-13T16:18:26.722Z,17.69
2023-03-13T16:20:53.951Z,17.93
2023-03-13T16:23:20.517Z,17.60
2023-03-13T16:25:48.432Z,17.69
2023-03-13T16:28:15.207Z,18.02
2023-03-13T16:30:47.449Z,17.65
2023-03-13T16:33:14.055Z,17.84
2023-03-13T16:35:40.910Z,17.56
2023-03-13T16:38:10.746Z,17.72
2023-03-13T16:40:37.596Z,16.60
2023-03-13T16:43:04.104Z,17.55
2023-03-13T16:45:30.694Z,17.53
2023-03-13T16:47:57.251Z,17.11
2023-03-13T16:50:32.771Z,17.13
2023-03-13T16:52:59.675Z,17.44
2023-03-13T16:55:30.472Z,17.43
2023-03-13T16:57:58.426Z,17.07
2023-03-13T17:00:26.944Z,16.92
2023-03-13T17:02:54.167Z,16.80
2023-03-13T17:05:20.867Z,16.96
2023-03-13T17:07:49.299Z,16.93
2023-03-13T17:10:22.550Z,16.84
2023-03-13T17:12:49.395Z,16.73
2023-03-13T17:15:20.020Z,16.97
2023-03-13T17:17:51.543Z,16.46
2023-03-13T17:20:20.930Z,16.69
2023-03-13T17:22:47.555Z,16.99
2023-03-13T17:25:14.114Z,16.61
2023-03-13T17:27:41.050Z,16.41
2023-03-13T17:30:23.592Z,16.35
2023-03-13T17:32:50.560Z,16.15
2023-03-13T17:35:17.909Z,16.73
2023-03-13T17:37:44.703Z,16.09
2023-03-13T17:40:22.035Z,16.57
2023-03-13T17:42:48.985Z,16.22
2023-03-13T17:45:16.105Z,16.32
2023-03-13T17:47:42.701Z,16.58
2023-03-13T17:50:14.706Z,16.62
2023-03-13T17:52:41.569Z,16.25
2023-03-13T17:55:09.405Z,16.49
2023-03-13T17:57:35.980Z,16.58
2023-03-13T18:00:02.603Z,16.60
2023-03-13T18:02:29.191Z,16.71
2023-03-13T18:04:56.115Z,16.52
2023-03-13T18:07:27.446Z,16.56
2023-03-13T18:09:54.350Z,16.28
2023-03-13T18:12:20.918Z,16.33
2023-03-13T18:14:47.467Z,16.58
2023-03-13T18:17:23.974Z,16.21
2023-03-13T18:19:50.846Z,16.09
2023-03-13T18:22:21.487Z,16.56
2023-03-13T18:24:49.181Z,16.21
2023-03-13T18:27:20.637Z,16.08
2023-03-13T18:29:51.504Z,15.89
2023-03-13T18:32:18.936Z,15.97
2023-03-13T18:34:45.865Z,15.95
2023-03-13T18:37:30.511Z,16.39
2023-03-13T18:39:57.944Z,15.94
2023-03-13T18:42:25.178Z,15.93
2023-03-13T18:44:52.362Z,16.19
2023-03-13T18:47:21.386Z,16.07
2023-03-13T18:49:51.211Z,15.86
2023-03-13T18:52:17.927Z,16.37
2023-03-13T18:54:44.934Z,16.31
2023-03-13T18:57:19.183Z,16.42
2023-03-13T18:59:46.059Z,16.44
2023-03-13T19:02:18.029Z,15.98
2023-03-13T19:04:45.842Z,16.36
2023-03-13T19:07:17.284Z,15.55
2023-03-13T19:09:46.329Z,15.65
2023-03-13T19:12:15.375Z,15.90
2023-03-13T19:14:42.237Z,15.94
2023-03-13T19:17:20.343Z,15.32
2023-03-13T19:19:46.894Z,15.69
2023-03-13T19:22:14.134Z,15.29
2023-03-13T19:24:40.732Z,15.34
2023-03-13T19:27:07.452Z,15.79
2023-03-13T19:29:36.504Z,15.86
2023-03-13T19:32:06.799Z,15.57
2023-03-13T19:34:33.413Z,15.84
2023-03-13T19:36:59.975Z,15.60
2023-03-13T19:39:26.541Z,16.05
2023-03-13T19:41:53.567Z,15.42
2023-03-13T19:44:20.963Z,15.56
2023-03-13T19:46:47.823Z,15.63
2023-03-13T19:49:19.536Z,15.31
2023-03-13T19:51:47.005Z,15.64
2023-03-13T19:54:13.932Z,16.06
2023-03-13T19:56:43.532Z,15.97
2023-03-13T19:59:14.580Z,15.49
2023-03-13T20:01:41.213Z,15.67
2023-03-13T20:04:07.957Z,15.60
2023-03-13T20:06:35.119Z,15.31
2023-03-13T20:09:05.043Z,15.56
2023-03-13T20:11:31.587Z,15.58
2023-03-13T20:13:59.390Z,15.24
2023-03-13T20:16:27.712Z,15.62
2023-03-13T20:18:57.584Z,14.89
2023-03-13T20:21:28.322Z,14.92
2023-03-13T20:23:55.012Z,15.06
2023-03-13T20:26:21.893Z,15.12
2023-03-13T20:28:52.033Z,15.11
2023-03-13T20:31:21.809Z,14.88
2023-03-13T20:33:48.434Z,14.93
2023-03-13T20:36:17.296Z,14.81
2023-03-13T20:38:44.286Z,14.64
2023-03-13T20:41:11.507Z,14.80
2023-03-13T20:43:38.853Z,15.15
2023-03-13T20:46:07.246Z,14.41
2023-03-13T20:48:39.255Z,14.65
2023-03-13T20:51:07.109Z,14.44
2023-03-13T20:53:37.923Z,14.47
2023-03-13T20:56:06.804Z,14.62
2023-03-13T20:58:33.685Z,15.19
2023-03-13T21:01:01.007Z,14.80
2023-03-13T21:03:28.081Z,14.70
2023-03-13T21:05:54.925Z,14.79
2023-03-13T21:08:21.449Z,14.65
2023-03-13T21:10:47.987Z,14.80
2023-03-13T21:13:14.489Z,14.72
2023-03-13T21:15:41.048Z,14.49
2023-03-13T21:18:07.763Z,14.37
2023-03-13T21:20:34.675Z,14.69
2023-03-13T21:23:01.363Z,13.90
2023-03-13T21:25:27.900Z,14.28
2023-03-13T21:27:54.435Z,14.28
2023-03-13T21:30:21.679Z,14.50
2023-03-13T21:32:48.480Z,14.26
2023-03-13T21:35:16.672Z,14.44
2023-03-13T21:37:43.340Z,14.14
2023-03-13T21:40:11.002Z,14.27
2023-03-13T21:42:37.708Z,13.99
2023-03-13T21:45:05.426Z,14.46
2023-03-13T21:47:36.575Z,14.58
2023-03-13T21:50:05.835Z,14.47
2023-03-13T21:52:34.375Z,14.49
2023-03-13T21:55:03.464Z,14.25
2023-03-13T21:57:30.019Z,14.69
2023-03-13T21:59:56.549Z,14.38
2023-03-13T22:02:23.201Z,14.83
2023-03-13T22:04:49.727Z,14.56
2023-03-13T22:07:16.203Z,13.89
2023-03-13T22:09:42.942Z,13.70
2023-03-13T22:12:09.568Z,13.31
2023-03-13T22:14:36.232Z,13.75
2023-03-13T22:17:02.761Z,13.46
2023-03-13T22:19:29.310Z,14.05
2023-03-13T22:21:55.984Z,13.77
2023-03-13T22:24:22.747Z,13.85
2023-03-13T22:26:49.659Z,13.60
2023-03-13T22:29:16.234Z,13.58
2023-03-13T22:31:42.736Z,13.55
2023-03-13T22:34:09.294Z,13.53
2023-03-13T22:36:35.843Z,13.23
2023-03-13T22:39:02.735Z,13.44
2023-03-13T22:41:29.345Z,13.63
2023-03-13T22:43:55.927Z,13.76
2023-03-13T22:46:22.540Z,13.65
2023-03-13T22:48:49.054Z,13.63
2023-03-13T22:51:16.645Z,13.50
2023-03-13T22:53:43.671Z,13.55
2023-03-13T22:56:11.843Z,13.87
2023-03-13T22:58:39.662Z,13.92
2023-03-13T23:01:14.597Z,13.92
2023-03-13T23:03:41.378Z,13.67
2023-03-13T23:06:09.893Z,13.71
2023-03-13T23:08:36.944Z,13.46
2023-03-13T23:11:04.480Z,13.39
2023-03-13T23:13:31.959Z,13.58
2023-03-13T23:15:58.870Z,13.94
2023-03-13T23:18:27.434Z,13.55
2023-03-13T23:20:54.287Z,13.93
2023-03-13T23:23:21.265Z,13.84
2023-03-13T23:25:48.325Z,13.48
2023-03-13T23:28:15.030Z,13.49
2023-03-13T23:30:41.504Z,13.74
2023-03-13T23:33:08.241Z,13.58
2023-03-13T23:35:37.061Z,13.59
2023-03-13T23:38:03.787Z,13.31
2023-03-13T23:40:30.332Z,13.43
2023-03-13T23:42:57.486Z,13.27
2023-03-13T23:45:24.282Z,13.48
2023-03-13T23:47:52.585Z,13.56
2023-03-13T23:50:19.199Z,13.68
2023-03-13T23:52:45.774Z,13.61
2023-03-13T23:55:12.392Z,13.40
2023-03-13T23:57:39.356Z,13.38
